To NAV CANADA Home Page Login to a new session Search on AWWS site Feedback and Comments Disclaimer Vers la page française équivalente Tips FAQ What's new on the site To the Forecasts and Observations / NOTAM section To "File a Flight Plan" website Publications and other links Update of the User's profile FIC Telephone Numbers My Weather Data Folder Route Weather Data Regional Weather Data Local Weather Data To the Forecasts and Observations / NOTAM section
Request Generated 03/04/2015 at 11:11:22 UTC . Weather information available at that time is displayed.

METAR/TAF

PANGNIRTUNG/NU    (show WxCam)

LWIS CYXP 041100Z AUTO VRB02KT M27/M32 A2948=
LWIS CYXP 041000Z AUTO 24005KT M28/M33 A2950=
LWIS CYXP 040900Z AUTO VRB03KT M27/M33 A2952=

*** REMARK        : Forecast period has ended; this was the last TAF issued
*** REMARQUE : La période de prévision est échue; ceci était le dernier TAF qui a été émis
TAF CYXP 031838Z 0319/0323 VRB03KT P6SM BKN200
RMK NXT FCST WILL BE ISSUED AT 041345Z=
Your time UTC time
Weather data provided by Environment Canada and NAV CANADA